createdAt,value
2018-07-15T00:01:13.005Z,16.00
2018-07-15T00:03:43.608Z,16.00
2018-07-15T00:06:13.902Z,16.00
2018-07-15T00:08:43.530Z,15.90
2018-07-15T00:11:13.518Z,15.90
2018-07-15T00:13:43.105Z,15.90
2018-07-15T00:16:12.704Z,15.90
2018-07-15T00:18:43.414Z,15.90
2018-07-15T00:21:13.413Z,15.80
2018-07-15T00:23:43.030Z,15.80
2018-07-15T00:26:12.701Z,15.70
2018-07-15T00:28:42.265Z,15.60
2018-07-15T00:31:11.917Z,15.50
2018-07-15T00:33:43.189Z,15.50
2018-07-15T00:36:12.916Z,15.50
2018-07-15T00:38:42.582Z,15.40
2018-07-15T00:41:12.319Z,15.40
2018-07-15T00:43:41.988Z,15.30
2018-07-15T00:46:11.648Z,15.40
2018-07-15T00:48:42.334Z,15.40
2018-07-15T00:51:12.945Z,15.30
2018-07-15T00:53:42.545Z,15.30
2018-07-15T00:56:12.186Z,15.20
2018-07-15T00:58:41.732Z,15.20
2018-07-15T01:01:11.375Z,15.20
2018-07-15T01:03:42.589Z,15.20
2018-07-15T01:06:13.034Z,15.20
2018-07-15T01:08:42.696Z,15.20
2018-07-15T01:11:13.232Z,15.20
2018-07-15T01:13:42.847Z,15.10
2018-07-15T01:16:12.633Z,15.10
2018-07-15T01:18:43.432Z,15.10
2018-07-15T01:21:13.534Z,15.10
2018-07-15T01:23:43.151Z,15.00
2018-07-15T01:26:12.816Z,15.00
2018-07-15T01:28:42.408Z,14.90
2018-07-15T01:31:12.048Z,14.90
2018-07-15T01:33:43.129Z,14.90
2018-07-15T01:36:13.386Z,14.90
2018-07-15T01:38:42.937Z,14.90
2018-07-15T01:41:12.611Z,14.90
2018-07-15T01:43:42.213Z,14.80
2018-07-15T01:46:11.908Z,14.80
2018-07-15T01:48:42.573Z,14.80
2018-07-15T01:51:13.161Z,14.80
2018-07-15T01:53:42.792Z,14.70
2018-07-15T01:56:12.430Z,14.60
2018-07-15T01:58:42.035Z,14.60
2018-07-15T02:01:11.647Z,14.50
2018-07-15T02:03:42.538Z,14.50
2018-07-15T02:06:13.532Z,14.50
2018-07-15T02:08:43.670Z,14.50
2018-07-15T02:11:13.243Z,14.50
2018-07-15T02:13:43.063Z,14.30
2018-07-15T02:16:12.684Z,14.20
2018-07-15T02:18:44.596Z,14.20
2018-07-15T02:21:14.899Z,14.20
2018-07-15T02:23:44.488Z,14.20
2018-07-15T02:26:14.099Z,14.10
2018-07-15T02:28:43.705Z,14.10
2018-07-15T02:31:13.329Z,14.10
2018-07-15T02:36:14.156Z,14.10
2018-07-15T02:38:43.998Z,14.10
2018-07-15T02:41:13.578Z,14.10
2018-07-15T02:43:44.006Z,14.00
2018-07-15T02:46:13.595Z,14.00
2018-07-15T02:48:44.315Z,13.90
2018-07-15T02:51:14.827Z,13.80
2018-07-15T02:53:44.688Z,13.80
2018-07-15T02:56:14.302Z,13.80
2018-07-15T02:58:44.492Z,13.80
2018-07-15T03:01:14.342Z,13.90
2018-07-15T03:03:44.849Z,13.80
2018-07-15T03:06:15.390Z,13.90
2018-07-15T03:08:45.129Z,13.80
2018-07-15T03:11:14.827Z,13.80
2018-07-15T03:13:44.995Z,13.80
2018-07-15T03:16:14.853Z,13.70
2018-07-15T03:18:46.105Z,13.60
2018-07-15T03:23:46.155Z,13.60
2018-07-15T03:26:15.809Z,13.50
2018-07-15T03:28:46.373Z,13.50
2018-07-15T03:31:16.058Z,13.60
2018-07-15T03:33:47.264Z,13.50
2018-07-15T03:36:17.055Z,13.50
2018-07-15T03:38:46.793Z,13.40
2018-07-15T03:41:16.400Z,13.50
2018-07-15T03:43:46.802Z,13.60
2018-07-15T03:46:16.373Z,13.60
2018-07-15T03:48:46.427Z,13.80
2018-07-15T03:51:16.674Z,13.90
2018-07-15T03:53:46.896Z,14.00
2018-07-15T03:56:16.510Z,13.90
2018-07-15T03:58:46.860Z,13.90
2018-07-15T04:01:16.480Z,14.00
2018-07-15T04:03:47.031Z,14.20
2018-07-15T04:06:16.850Z,14.40
2018-07-15T04:08:47.173Z,14.50
2018-07-15T04:11:16.599Z,14.60
2018-07-15T04:13:46.690Z,14.70
2018-07-15T04:16:16.310Z,15.00
2018-07-15T04:18:46.721Z,15.10
2018-07-15T04:21:16.702Z,15.20
2018-07-15T04:23:47.021Z,15.30
2018-07-15T04:26:16.600Z,15.50
2018-07-15T04:28:46.606Z,15.60
2018-07-15T04:31:16.289Z,15.70
2018-07-15T04:33:46.526Z,15.80
2018-07-15T04:36:16.568Z,15.80
2018-07-15T04:38:46.801Z,16.00
2018-07-15T04:41:16.442Z,16.20
2018-07-15T04:43:46.420Z,16.20
2018-07-15T04:46:16.005Z,16.30
2018-07-15T04:48:45.793Z,16.40
2018-07-15T04:51:15.976Z,16.60
2018-07-15T04:53:45.574Z,16.70
2018-07-15T04:56:15.266Z,16.70
2018-07-15T04:58:44.847Z,16.90
2018-07-15T05:01:14.487Z,17.10
2018-07-15T05:03:44.484Z,17.20
2018-07-15T05:06:14.584Z,17.40
2018-07-15T05:08:44.146Z,17.80
2018-07-15T05:13:43.171Z,18.00
2018-07-15T05:16:12.784Z,18.10
2018-07-15T05:18:43.642Z,18.30
2018-07-15T05:23:43.363Z,18.80
2018-07-15T05:26:13.062Z,19.00
2018-07-15T05:28:42.612Z,18.90
2018-07-15T05:31:12.280Z,19.20
2018-07-15T05:33:42.709Z,19.60
2018-07-15T05:36:13.752Z,19.90
2018-07-15T05:38:43.332Z,20.00
2018-07-15T05:41:12.966Z,20.20
2018-07-15T05:43:42.565Z,20.40
2018-07-15T05:46:12.211Z,20.50
2018-07-15T05:48:43.128Z,20.40
2018-07-15T05:51:13.692Z,20.60
2018-07-15T05:53:43.292Z,20.60
2018-07-15T05:56:12.972Z,20.60
2018-07-15T05:58:42.547Z,20.60
2018-07-15T06:01:12.148Z,20.60
2018-07-15T06:03:42.597Z,20.80
2018-07-15T06:06:13.155Z,21.10
2018-07-15T06:08:43.055Z,20.90
2018-07-15T06:11:12.757Z,21.10
2018-07-15T06:13:42.628Z,21.00
2018-07-15T06:16:12.217Z,21.10
2018-07-15T06:18:43.132Z,21.30
2018-07-15T06:21:13.584Z,21.40
2018-07-15T06:23:43.227Z,21.60
2018-07-15T06:26:12.879Z,21.70
2018-07-15T06:28:42.513Z,21.60
2018-07-15T06:31:12.163Z,21.70
2018-07-15T06:33:42.868Z,21.90
2018-07-15T06:36:13.577Z,21.80
2018-07-15T06:38:43.163Z,21.90
2018-07-15T06:41:12.789Z,22.20
2018-07-15T06:43:42.370Z,22.10
2018-07-15T06:46:11.977Z,22.00
2018-07-15T06:48:42.627Z,21.70
2018-07-15T06:51:13.021Z,21.80
2018-07-15T06:53:41.540Z,22.00
2018-07-15T06:56:11.246Z,22.00
2018-07-15T06:58:40.980Z,22.00
2018-07-15T07:01:10.624Z,21.50
2018-07-15T07:03:41.672Z,21.70
2018-07-15T07:06:12.291Z,21.30
2018-07-15T07:08:41.994Z,21.20
2018-07-15T07:11:10.559Z,21.70
2018-07-15T07:13:40.492Z,22.00
2018-07-15T07:16:10.103Z,21.90
2018-07-15T07:18:41.627Z,22.20
2018-07-15T07:21:12.043Z,22.40
2018-07-15T07:23:41.757Z,22.30
2018-07-15T07:26:11.326Z,22.50
2018-07-15T07:28:41.324Z,22.50
2018-07-15T07:31:11.438Z,22.40
2018-07-15T07:33:43.015Z,21.90
2018-07-15T07:36:14.063Z,22.10
2018-07-15T07:38:43.852Z,22.20
2018-07-15T07:41:13.559Z,22.40
2018-07-15T07:43:43.097Z,22.40
2018-07-15T07:46:12.669Z,22.00
2018-07-15T07:48:43.373Z,22.30
2018-07-15T07:51:14.219Z,22.60
2018-07-15T07:53:43.823Z,22.60
2018-07-15T07:56:13.570Z,22.70
2018-07-15T07:58:43.152Z,22.70
2018-07-15T08:01:12.906Z,22.90
2018-07-15T08:03:43.477Z,22.80
2018-07-15T08:06:13.936Z,22.60
2018-07-15T08:08:43.598Z,22.80
2018-07-15T08:11:13.299Z,23.00
2018-07-15T08:13:42.953Z,23.10
2018-07-15T08:16:12.587Z,23.00
2018-07-15T08:18:44.713Z,22.50
2018-07-15T08:21:15.250Z,22.00
2018-07-15T08:23:44.903Z,21.60
2018-07-15T08:26:14.596Z,21.40
2018-07-15T08:28:44.165Z,21.70
2018-07-15T08:31:16.538Z,21.90
2018-07-15T08:33:46.202Z,21.90
2018-07-15T08:36:16.517Z,22.00
2018-07-15T08:38:46.120Z,22.10
2018-07-15T08:41:15.893Z,21.80
2018-07-15T08:43:45.647Z,22.00
2018-07-15T08:46:15.391Z,22.10
2018-07-15T08:48:45.704Z,22.20
2018-07-15T08:51:16.185Z,22.60
2018-07-15T08:53:45.812Z,23.00
2018-07-15T08:56:15.467Z,23.00
2018-07-15T08:58:45.058Z,22.80
2018-07-15T09:01:14.701Z,23.00
2018-07-15T09:03:44.549Z,22.40
2018-07-15T09:06:15.607Z,21.40
2018-07-15T09:08:45.285Z,21.80
2018-07-15T09:11:15.099Z,22.50
2018-07-15T09:13:44.674Z,23.10
2018-07-15T09:16:14.449Z,23.30
2018-07-15T09:18:44.301Z,23.40
2018-07-15T09:21:14.911Z,23.70
2018-07-15T09:23:44.948Z,23.30
2018-07-15T09:26:14.805Z,23.20
2018-07-15T09:28:44.429Z,22.90
2018-07-15T09:31:14.073Z,23.00
2018-07-15T09:33:44.356Z,23.20
2018-07-15T09:36:15.128Z,23.30
2018-07-15T09:38:44.678Z,23.40
2018-07-15T09:41:14.422Z,22.60
2018-07-15T09:43:44.048Z,22.50
2018-07-15T09:46:13.726Z,22.60
2018-07-15T09:48:44.258Z,23.20
2018-07-15T09:51:14.822Z,23.70
2018-07-15T09:53:44.408Z,23.50
2018-07-15T09:56:14.087Z,23.60
2018-07-15T09:58:43.701Z,23.70
2018-07-15T10:01:13.366Z,24.20
2018-07-15T10:03:43.736Z,24.50
2018-07-15T10:06:14.829Z,23.80
2018-07-15T10:08:44.426Z,23.80
2018-07-15T10:11:14.065Z,23.80
2018-07-15T10:13:43.650Z,23.60
2018-07-15T10:16:13.336Z,23.70
2018-07-15T10:18:43.713Z,23.70
2018-07-15T10:21:14.482Z,23.80
2018-07-15T10:23:44.081Z,24.10
2018-07-15T10:26:13.774Z,23.80
2018-07-15T10:28:43.367Z,23.50
2018-07-15T10:31:13.047Z,23.40
2018-07-15T10:33:43.394Z,22.70
2018-07-15T10:36:14.079Z,23.00
2018-07-15T10:38:43.861Z,23.50
2018-07-15T10:41:13.481Z,23.50
2018-07-15T10:43:43.068Z,23.70
2018-07-15T10:46:12.672Z,23.80
2018-07-15T10:48:42.874Z,24.10
2018-07-15T10:51:13.376Z,24.30
2018-07-15T10:53:43.043Z,24.20
2018-07-15T10:56:12.714Z,24.50
2018-07-15T10:58:42.324Z,24.60
2018-07-15T11:03:43.000Z,24.20
2018-07-15T11:06:13.498Z,24.10
2018-07-15T11:08:43.102Z,24.10
2018-07-15T11:11:12.670Z,24.00
2018-07-15T11:13:42.255Z,24.20
2018-07-15T11:16:11.863Z,24.50
2018-07-15T11:18:42.490Z,24.60
2018-07-15T11:21:12.747Z,24.70
2018-07-15T11:23:42.360Z,24.60
2018-07-15T11:26:12.196Z,24.30
2018-07-15T11:28:41.781Z,24.20
2018-07-15T11:31:11.857Z,24.40
2018-07-15T11:33:43.183Z,24.70
2018-07-15T11:36:13.471Z,25.10
2018-07-15T11:38:43.149Z,25.30
2018-07-15T11:41:12.908Z,25.50
2018-07-15T11:43:42.549Z,25.60
2018-07-15T11:46:12.208Z,25.70
2018-07-15T11:48:42.853Z,25.60
2018-07-15T11:51:14.023Z,25.60
2018-07-15T11:53:43.585Z,25.50
2018-07-15T11:58:42.625Z,25.60
2018-07-15T12:01:13.299Z,25.60
2018-07-15T12:03:43.393Z,25.50
2018-07-15T12:06:14.527Z,25.50
2018-07-15T12:08:44.172Z,25.30
2018-07-15T12:11:14.370Z,25.50
2018-07-15T12:13:43.957Z,25.80
2018-07-15T12:16:13.982Z,25.80
2018-07-15T12:18:44.454Z,25.40
2018-07-15T12:21:15.796Z,24.90
2018-07-15T12:23:45.402Z,25.20
2018-07-15T12:26:15.217Z,25.40
2018-07-15T12:28:44.817Z,25.70
2018-07-15T12:31:14.869Z,26.00
2018-07-15T12:33:45.174Z,26.00
2018-07-15T12:36:16.201Z,26.10
2018-07-15T12:38:45.833Z,26.20
2018-07-15T12:41:15.851Z,26.20
2018-07-15T12:43:45.445Z,26.40
2018-07-15T12:46:15.450Z,26.50
2018-07-15T12:48:45.212Z,26.50
2018-07-15T12:51:16.375Z,26.60
2018-07-15T12:53:45.950Z,26.70
2018-07-15T12:56:16.111Z,26.90
2018-07-15T12:58:45.729Z,27.10
2018-07-15T13:01:16.247Z,27.70
2018-07-15T13:03:45.872Z,28.10
2018-07-15T13:06:16.657Z,28.10
2018-07-15T13:08:46.236Z,28.60
2018-07-15T13:11:16.736Z,28.60
2018-07-15T13:13:46.442Z,29.30
2018-07-15T13:16:17.075Z,29.70
2018-07-15T13:18:46.635Z,29.80
2018-07-15T13:21:17.804Z,29.70
2018-07-15T13:23:47.377Z,29.20
2018-07-15T13:26:17.687Z,29.30
2018-07-15T13:33:47.731Z,29.30
2018-07-15T13:38:48.332Z,28.70
2018-07-15T13:41:18.160Z,29.60
2018-07-15T13:43:47.769Z,29.90
2018-07-15T13:46:18.281Z,29.60
2018-07-15T13:48:47.840Z,29.30
2018-07-15T13:51:19.178Z,29.00
2018-07-15T13:53:48.740Z,29.10
2018-07-15T13:56:18.995Z,29.20
2018-07-15T13:58:48.573Z,29.10
2018-07-15T14:01:19.024Z,29.00
2018-07-15T14:03:48.599Z,28.70
2018-07-15T14:06:19.711Z,28.20
2018-07-15T14:08:49.314Z,28.20
2018-07-15T14:11:19.699Z,28.40
2018-07-15T14:13:49.395Z,28.50
2018-07-15T14:16:19.725Z,28.60
2018-07-15T14:18:49.535Z,28.50
2018-07-15T14:21:20.337Z,28.30
2018-07-15T14:23:49.975Z,28.20
2018-07-15T14:26:20.633Z,28.20
2018-07-15T14:28:50.851Z,28.30
2018-07-15T14:31:21.044Z,28.50
2018-07-15T14:33:51.007Z,28.40
2018-07-15T14:38:51.077Z,28.60
2018-07-15T14:41:21.391Z,28.80
2018-07-15T14:43:51.117Z,28.60
2018-07-15T14:46:21.364Z,28.80
2018-07-15T14:48:50.940Z,28.90
2018-07-15T14:51:21.335Z,28.90
2018-07-15T14:53:50.919Z,29.00
2018-07-15T14:56:21.340Z,29.00
2018-07-15T14:58:51.015Z,29.00
2018-07-15T15:01:21.384Z,29.00
2018-07-15T15:03:50.967Z,28.50
2018-07-15T15:06:21.500Z,28.20
2018-07-15T15:08:51.121Z,28.40
2018-07-15T15:11:21.394Z,28.40
2018-07-15T15:13:50.966Z,28.50
2018-07-15T15:16:21.182Z,28.60
2018-07-15T15:18:50.826Z,28.60
2018-07-15T15:21:21.081Z,28.50
2018-07-15T15:23:50.770Z,28.40
2018-07-15T15:26:20.848Z,28.20
2018-07-15T15:28:50.538Z,27.80
2018-07-15T15:31:20.767Z,27.70
2018-07-15T15:33:50.438Z,27.60
2018-07-15T15:36:20.456Z,27.80
2018-07-15T15:38:50.094Z,27.90
2018-07-15T15:41:20.002Z,27.80
2018-07-15T15:43:49.933Z,27.70
2018-07-15T15:46:19.536Z,27.80
2018-07-15T15:48:49.122Z,27.70
2018-07-15T15:51:19.062Z,27.80
2018-07-15T15:53:48.703Z,27.80
2018-07-15T15:56:18.403Z,27.80
2018-07-15T15:58:48.055Z,27.70
2018-07-15T16:01:17.714Z,27.70
2018-07-15T16:03:47.660Z,27.50
2018-07-15T16:06:18.331Z,27.50
2018-07-15T16:08:47.980Z,27.40
2018-07-15T16:11:17.604Z,27.20
2018-07-15T16:13:47.270Z,27.00
2018-07-15T16:16:17.040Z,27.00
2018-07-15T16:18:46.615Z,26.70
2018-07-15T16:21:17.076Z,26.60
2018-07-15T16:23:46.853Z,26.60
2018-07-15T16:26:16.700Z,26.60
2018-07-15T16:28:46.372Z,26.30
2018-07-15T16:31:15.969Z,26.40
2018-07-15T16:33:45.686Z,26.30
2018-07-15T16:36:16.460Z,26.10
2018-07-15T16:38:46.201Z,26.10
2018-07-15T16:41:15.951Z,25.90
2018-07-15T16:43:45.615Z,25.90
2018-07-15T16:46:15.370Z,25.80
2018-07-15T16:48:45.082Z,25.80
2018-07-15T16:51:15.709Z,25.60
2018-07-15T16:53:45.303Z,25.50
2018-07-15T16:56:15.153Z,25.40
2018-07-15T16:58:44.597Z,25.40
2018-07-15T17:01:14.317Z,25.40
2018-07-15T17:03:44.563Z,25.30
2018-07-15T17:06:14.959Z,25.20
2018-07-15T17:08:44.593Z,25.10
2018-07-15T17:11:14.297Z,25.10
2018-07-15T17:13:43.912Z,25.10
2018-07-15T17:16:13.574Z,25.00
2018-07-15T17:18:44.323Z,24.90
2018-07-15T17:21:14.898Z,24.90
2018-07-15T17:23:44.614Z,24.80
2018-07-15T17:28:43.509Z,24.60
2018-07-15T17:31:13.061Z,24.50
2018-07-15T17:33:44.024Z,24.50
2018-07-15T17:36:14.180Z,24.50
2018-07-15T17:38:43.848Z,24.50
2018-07-15T17:41:13.472Z,24.40
2018-07-15T17:43:43.251Z,24.30
2018-07-15T17:46:12.967Z,24.20
2018-07-15T17:48:43.646Z,24.20
2018-07-15T17:51:14.278Z,24.10
2018-07-15T17:56:13.103Z,23.90
2018-07-15T17:58:42.719Z,23.90
2018-07-15T18:01:12.384Z,23.90
2018-07-15T18:03:43.551Z,23.80
2018-07-15T18:06:13.797Z,23.80
2018-07-15T18:08:43.481Z,23.70
2018-07-15T18:11:13.164Z,23.60
2018-07-15T18:13:42.804Z,23.60
2018-07-15T18:16:12.414Z,23.50
2018-07-15T18:18:43.087Z,23.50
2018-07-15T18:21:13.161Z,23.40
2018-07-15T18:23:42.713Z,23.40
2018-07-15T18:26:12.305Z,23.40
2018-07-15T18:28:41.938Z,23.30
2018-07-15T18:31:11.616Z,23.30
2018-07-15T18:33:42.763Z,23.20
2018-07-15T18:36:12.928Z,23.10
2018-07-15T18:38:42.489Z,23.00
2018-07-15T18:41:12.780Z,23.00
2018-07-15T18:43:42.429Z,22.90
2018-07-15T18:46:12.068Z,22.80
2018-07-15T18:48:42.699Z,22.60
2018-07-15T18:53:42.065Z,22.50
2018-07-15T18:56:11.738Z,22.30
2018-07-15T18:58:41.352Z,22.20
2018-07-15T19:01:11.026Z,22.10
2018-07-15T19:03:42.185Z,22.00
2018-07-15T19:06:11.892Z,21.90
2018-07-15T19:08:41.925Z,21.80
2018-07-15T19:13:40.893Z,21.60
2018-07-15T19:16:10.497Z,21.50
2018-07-15T19:18:41.479Z,21.40
2018-07-15T19:21:11.067Z,21.30
2018-07-15T19:23:40.793Z,21.20
2018-07-15T19:26:10.411Z,21.10
2018-07-15T19:28:40.204Z,21.00
2018-07-15T19:31:09.848Z,20.90
2018-07-15T19:33:40.532Z,20.80
2018-07-15T19:36:10.154Z,20.70
2018-07-15T19:38:40.094Z,20.60
2018-07-15T19:41:09.981Z,20.60
2018-07-15T19:43:39.811Z,20.40
2018-07-15T19:46:09.384Z,20.40
2018-07-15T19:48:40.187Z,20.30
2018-07-15T19:51:09.851Z,20.10
2018-07-15T19:53:39.743Z,20.10
2018-07-15T19:56:09.422Z,20.00
2018-07-15T19:58:39.252Z,19.90
2018-07-15T20:01:08.938Z,19.80
2018-07-15T20:03:39.276Z,19.70
2018-07-15T20:06:08.919Z,19.60
2018-07-15T20:08:39.117Z,19.50
2018-07-15T20:11:08.732Z,19.50
2018-07-15T20:13:38.789Z,19.40
2018-07-15T20:16:08.370Z,19.30
2018-07-15T20:18:39.079Z,19.30
2018-07-15T20:21:08.676Z,19.20
2018-07-15T20:23:38.593Z,19.10
2018-07-15T20:26:08.212Z,19.10
2018-07-15T20:28:38.003Z,19.00
2018-07-15T20:31:07.642Z,19.00
2018-07-15T20:33:37.454Z,19.00
2018-07-15T20:36:07.020Z,18.90
2018-07-15T20:38:36.724Z,18.90
2018-07-15T20:41:06.356Z,18.80
2018-07-15T20:43:35.941Z,18.70
2018-07-15T20:46:05.484Z,18.70
2018-07-15T20:48:35.091Z,18.70
2018-07-15T20:51:04.707Z,18.60
2018-07-15T20:53:34.301Z,18.60
2018-07-15T21:01:02.540Z,18.60
2018-07-15T21:03:32.111Z,18.60
2018-07-15T21:08:30.995Z,18.80
2018-07-15T21:11:01.419Z,18.80
2018-07-15T21:13:30.931Z,18.80
2018-07-15T21:16:00.519Z,18.80
2018-07-15T21:18:30.171Z,18.70
2018-07-15T21:20:59.749Z,18.70
2018-07-15T21:23:29.322Z,18.60
2018-07-15T21:25:59.004Z,18.60
2018-07-15T21:28:28.639Z,18.50
2018-07-15T21:30:58.320Z,18.50
2018-07-15T21:33:27.898Z,18.40
2018-07-15T21:35:57.470Z,18.40
2018-07-15T21:38:27.072Z,18.30
2018-07-15T21:40:56.670Z,18.30
2018-07-15T21:43:26.282Z,18.20
2018-07-15T21:45:55.853Z,18.20
2018-07-15T21:48:25.454Z,18.20
2018-07-15T21:50:55.045Z,18.10
2018-07-15T21:53:24.654Z,18.10
2018-07-15T21:58:23.615Z,17.90
2018-07-15T22:00:54.445Z,17.80
2018-07-15T22:03:24.826Z,17.80
2018-07-15T22:05:54.474Z,17.80
2018-07-15T22:08:50.494Z,17.80
2018-07-15T22:11:20.079Z,17.80
2018-07-15T22:13:49.993Z,17.70
2018-07-15T22:16:19.583Z,17.70
2018-07-15T22:18:49.532Z,17.60
2018-07-15T22:21:19.377Z,17.60
2018-07-15T22:23:49.573Z,17.50
2018-07-15T22:26:19.318Z,17.50
2018-07-15T22:28:49.379Z,17.60
2018-07-15T22:31:18.972Z,17.50
2018-07-15T22:33:48.796Z,17.50
2018-07-15T22:36:18.732Z,17.50
2018-07-15T22:38:48.503Z,17.50
2018-07-15T22:43:47.848Z,17.60
2018-07-15T22:46:17.558Z,17.70
2018-07-15T22:48:47.135Z,17.70
2018-07-15T22:51:17.711Z,17.80
2018-07-15T22:53:47.662Z,17.80
2018-07-15T22:56:17.266Z,17.80
2018-07-15T22:58:46.885Z,17.90
2018-07-15T23:01:16.538Z,17.80
2018-07-15T23:03:46.104Z,17.90
2018-07-15T23:06:19.718Z,17.80
2018-07-15T23:08:49.971Z,17.80
2018-07-15T23:11:19.565Z,17.70
2018-07-15T23:13:49.543Z,17.60
2018-07-15T23:16:19.121Z,17.60
2018-07-15T23:18:48.732Z,17.60
2018-07-15T23:21:18.713Z,17.60
2018-07-15T23:23:48.279Z,17.60
2018-07-15T23:26:17.897Z,17.60
2018-07-15T23:28:47.475Z,17.50
2018-07-15T23:31:17.225Z,17.50
2018-07-15T23:33:46.805Z,17.50
2018-07-15T23:36:17.132Z,17.50
2018-07-15T23:41:16.029Z,17.40
2018-07-15T23:43:45.683Z,17.40
2018-07-15T23:46:15.352Z,17.30
2018-07-15T23:48:45.043Z,17.40
2018-07-15T23:51:15.130Z,17.30
2018-07-15T23:53:44.719Z,17.30
2018-07-15T23:56:14.399Z,17.30
2018-07-15T23:58:44.003Z,17.20
